sensor_id;sensor_type;location;lat;lon;timestamp;P1;P2;P0;N1;N25;N10
84107;NextPM;74203;50.730;1.626;2023-11-19T00:00:16;38.40;28.40;25.55;347.00;350.00;351.50
84107;NextPM;74203;50.730;1.626;2023-11-19T00:02:24;38.40;28.40;25.60;348.50;351.00;352.50
84107;NextPM;74203;50.730;1.626;2023-11-19T00:04:31;39.85;29.50;26.55;353.50;357.00;358.00
84107;NextPM;74203;50.730;1.626;2023-11-19T00:06:40;40.85;30.20;27.20;369.50;373.00;374.50
84107;NextPM;74203;50.730;1.626;2023-11-19T00:08:48;42.30;31.30;28.15;384.00;387.00;388.00
84107;NextPM;74203;50.730;1.626;2023-11-19T00:10:55;41.50;30.70;27.65;367.00;370.50;371.50
84107;NextPM;74203;50.730;1.626;2023-11-19T00:13:02;41.20;30.45;27.45;370.00;373.00;374.50
84107;NextPM;74203;50.730;1.626;2023-11-19T00:15:10;39.10;28.90;26.05;354.50;358.00;360.00
84107;NextPM;74203;50.730;1.626;2023-11-19T00:17:18;41.20;30.50;27.45;369.00;372.00;374.00
84107;NextPM;74203;50.730;1.626;2023-11-19T00:19:26;39.15;28.95;26.05;350.50;353.00;355.00
84107;NextPM;74203;50.730;1.626;2023-11-19T00:21:33;40.50;29.90;27.00;359.50;363.00;364.50
84107;NextPM;74203;50.730;1.626;2023-11-19T00:23:40;41.20;30.50;27.45;367.50;371.00;372.50
84107;NextPM;74203;50.730;1.626;2023-11-19T00:25:48;42.15;31.20;28.10;383.00;385.50;387.00
84107;NextPM;74203;50.730;1.626;2023-11-19T00:27:55;40.80;30.15;27.20;371.00;375.00;376.50
84107;NextPM;74203;50.730;1.626;2023-11-19T00:30:02;41.20;30.50;27.50;372.50;376.00;378.00
84107;NextPM;74203;50.730;1.626;2023-11-19T00:32:11;41.05;30.35;27.35;369.00;371.50;373.50
84107;NextPM;74203;50.730;1.626;2023-11-19T00:34:18;40.35;29.85;26.85;361.50;365.00;366.50
84107;NextPM;74203;50.730;1.626;2023-11-19T00:36:25;40.95;30.30;27.30;371.50;374.50;376.50
84107;NextPM;74203;50.730;1.626;2023-11-19T00:38:33;41.50;30.70;27.65;376.50;380.00;381.50
84107;NextPM;74203;50.730;1.626;2023-11-19T00:40:41;41.20;30.50;27.45;379.50;383.00;385.00
84107;NextPM;74203;50.730;1.626;2023-11-19T00:42:48;43.90;32.45;29.25;393.00;396.00;398.00
84107;NextPM;74203;50.730;1.626;2023-11-19T00:44:55;40.65;30.05;27.10;369.50;373.00;374.50
84107;NextPM;74203;50.730;1.626;2023-11-19T00:47:03;41.10;30.40;27.35;371.50;375.50;376.50
84107;NextPM;74203;50.730;1.626;2023-11-19T00:49:10;40.45;29.90;26.90;368.00;372.00;373.00
84107;NextPM;74203;50.730;1.626;2023-11-19T00:51:18;38.80;28.70;25.85;361.00;364.50;365.50
84107;NextPM;74203;50.730;1.626;2023-11-19T00:53:25;38.95;28.80;25.90;354.00;357.00;358.50
84107;NextPM;74203;50.730;1.626;2023-11-19T00:55:32;38.55;28.55;25.70;351.00;354.00;356.00
84107;NextPM;74203;50.730;1.626;2023-11-19T00:57:39;39.35;29.05;26.20;361.50;364.00;365.50
84107;NextPM;74203;50.730;1.626;2023-11-19T00:59:47;41.60;30.80;27.75;373.50;376.00;378.00
84107;NextPM;74203;50.730;1.626;2023-11-19T01:01:54;39.75;29.40;26.50;363.50;366.50;368.00
84107;NextPM;74203;50.730;1.626;2023-11-19T01:04:01;40.75;30.20;27.20;373.00;376.00;378.00
84107;NextPM;74203;50.730;1.626;2023-11-19T01:06:10;40.50;29.95;27.00;372.00;375.50;377.00
84107;NextPM;74203;50.730;1.626;2023-11-19T01:08:17;40.75;30.15;27.15;374.50;377.50;379.00
84107;NextPM;74203;50.730;1.626;2023-11-19T01:10:25;41.90;31.00;27.90;380.00;383.00;384.50
84107;NextPM;74203;50.730;1.626;2023-11-19T01:12:32;41.15;30.40;27.45;376.00;378.50;380.50
84107;NextPM;74203;50.730;1.626;2023-11-19T01:14:39;42.05;31.10;28.00;374.00;377.50;379.50
84107;NextPM;74203;50.730;1.626;2023-11-19T01:16:47;41.70;30.85;27.80;386.50;389.00;391.00
84107;NextPM;74203;50.730;1.626;2023-11-19T01:18:54;42.95;31.75;28.60;387.00;390.50;391.50
84107;NextPM;74203;50.730;1.626;2023-11-19T01:21:01;44.30;32.75;29.55;401.00;403.50;405.50
84107;NextPM;74203;50.730;1.626;2023-11-19T01:23:09;42.20;31.25;28.10;385.50;389.50;390.50
84107;NextPM;74203;50.730;1.626;2023-11-19T01:25:17;41.95;31.05;27.90;384.00;388.00;390.00
84107;NextPM;74203;50.730;1.626;2023-11-19T01:27:24;40.75;30.10;27.15;363.00;366.50;368.00
84107;NextPM;74203;50.730;1.626;2023-11-19T01:29:32;40.80;30.20;27.20;375.00;378.50;380.00
84107;NextPM;74203;50.730;1.626;2023-11-19T01:31:39;41.10;30.40;27.40;374.50;377.00;378.50
84107;NextPM;74203;50.730;1.626;2023-11-19T01:33:46;40.70;30.10;27.10;376.50;380.00;382.00
84107;NextPM;74203;50.730;1.626;2023-11-19T01:35:54;40.60;30.00;27.05;371.00;374.00;375.00
84107;NextPM;74203;50.730;1.626;2023-11-19T01:38:01;39.00;28.85;26.00;356.00;358.50;360.50
84107;NextPM;74203;50.730;1.626;2023-11-19T01:40:09;38.50;28.50;25.65;343.00;346.00;347.50
84107;NextPM;74203;50.730;1.626;2023-11-19T01:42:18;39.35;29.10;26.25;351.00;354.00;355.50
84107;NextPM;74203;50.730;1.626;2023-11-19T01:44:25;39.95;29.55;26.60;361.00;364.00;365.50
84107;NextPM;74203;50.730;1.626;2023-11-19T01:46:32;40.40;29.90;26.95;367.50;370.50;372.50
84107;NextPM;74203;50.730;1.626;2023-11-19T01:48:43;41.20;30.40;27.40;374.00;377.00;378.50
84107;NextPM;74203;50.730;1.626;2023-11-19T01:50:52;41.15;30.45;27.40;372.00;376.00;377.00
84107;NextPM;74203;50.730;1.626;2023-11-19T01:53:01;40.90;30.25;27.30;369.50;373.00;375.00
84107;NextPM;74203;50.730;1.626;2023-11-19T01:55:09;41.15;30.40;27.40;372.00;375.00;377.00
84107;NextPM;74203;50.730;1.626;2023-11-19T01:57:18;42.90;31.75;28.60;388.50;391.50;393.50
84107;NextPM;74203;50.730;1.626;2023-11-19T01:59:27;43.85;32.40;29.20;397.00;400.00;402.00
84107;NextPM;74203;50.730;1.626;2023-11-19T02:01:35;43.40;32.10;28.90;384.50;388.00;389.00
84107;NextPM;74203;50.730;1.626;2023-11-19T02:03:44;42.20;31.20;28.10;384.00;386.50;388.00
84107;NextPM;74203;50.730;1.626;2023-11-19T02:05:51;39.25;29.05;26.15;356.00;358.50;360.00
84107;NextPM;74203;50.730;1.626;2023-11-19T02:07:59;38.85;28.70;25.85;354.00;358.00;359.00
84107;NextPM;74203;50.730;1.626;2023-11-19T02:10:07;40.85;30.20;27.20;360.00;363.50;365.00
84107;NextPM;74203;50.730;1.626;2023-11-19T02:12:15;41.45;30.70;27.60;381.50;384.50;386.50
84107;NextPM;74203;50.730;1.626;2023-11-19T02:14:24;40.10;29.65;26.75;371.00;374.00;375.50
84107;NextPM;74203;50.730;1.626;2023-11-19T02:16:32;41.30;30.55;27.50;372.00;375.00;376.50
84107;NextPM;74203;50.730;1.626;2023-11-19T02:18:40;41.00;30.30;27.30;371.00;374.00;375.00
84107;NextPM;74203;50.730;1.626;2023-11-19T02:20:47;40.65;30.10;27.10;362.50;365.50;367.00
84107;NextPM;74203;50.730;1.626;2023-11-19T02:22:55;39.00;28.85;26.00;356.50;359.00;361.00
84107;NextPM;74203;50.730;1.626;2023-11-19T02:25:04;38.45;28.45;25.65;349.00;351.50;353.50
84107;NextPM;74203;50.730;1.626;2023-11-19T02:27:18;37.25;27.50;24.80;343.00;346.00;347.50
84107;NextPM;74203;50.730;1.626;2023-11-19T02:29:34;38.70;28.65;25.80;352.00;355.00;357.00
84107;NextPM;74203;50.730;1.626;2023-11-19T02:31:42;39.05;28.90;26.05;356.50;359.50;361.00
84107;NextPM;74203;50.730;1.626;2023-11-19T02:33:49;36.35;26.90;24.25;327.50;330.00;331.50
84107;NextPM;74203;50.730;1.626;2023-11-19T02:35:56;36.60;27.05;24.40;329.00;331.50;332.50
84107;NextPM;74203;50.730;1.626;2023-11-19T02:38:04;37.20;27.50;24.80;337.00;340.00;341.00
84107;NextPM;74203;50.730;1.626;2023-11-19T02:40:11;39.00;28.85;26.00;354.50;357.00;358.50
84107;NextPM;74203;50.730;1.626;2023-11-19T02:42:20;38.55;28.50;25.70;351.50;354.50;356.00
84107;NextPM;74203;50.730;1.626;2023-11-19T02:44:27;39.50;29.25;26.30;361.50;364.00;365.50
84107;NextPM;74203;50.730;1.626;2023-11-19T02:46:34;42.55;31.45;28.35;384.00;387.50;389.00
84107;NextPM;74203;50.730;1.626;2023-11-19T02:48:42;40.10;29.65;26.70;362.00;365.00;366.50
84107;NextPM;74203;50.730;1.626;2023-11-19T02:50:49;41.25;30.55;27.50;377.50;381.00;382.50
84107;NextPM;74203;50.730;1.626;2023-11-19T02:52:56;42.55;31.45;28.35;384.00;387.00;389.00
84107;NextPM;74203;50.730;1.626;2023-11-19T02:55:05;39.60;29.25;26.40;359.50;362.50;364.50
84107;NextPM;74203;50.730;1.626;2023-11-19T02:57:12;38.90;28.80;25.90;355.50;358.50;360.50
84107;NextPM;74203;50.730;1.626;2023-11-19T02:59:20;38.30;28.35;25.50;352.50;355.50;356.50
84107;NextPM;74203;50.730;1.626;2023-11-19T03:01:27;40.00;29.55;26.65;358.50;362.00;363.50
84107;NextPM;74203;50.730;1.626;2023-11-19T03:03:34;38.90;28.80;25.90;357.00;359.50;361.00
84107;NextPM;74203;50.730;1.626;2023-11-19T03:05:42;38.95;28.75;25.90;351.00;354.50;356.00
84107;NextPM;74203;50.730;1.626;2023-11-19T03:07:49;41.05;30.35;27.35;372.50;375.00;377.00
84107;NextPM;74203;50.730;1.626;2023-11-19T03:09:57;41.70;30.80;27.80;375.50;378.50;380.00
84107;NextPM;74203;50.730;1.626;2023-11-19T03:12:05;40.40;29.85;26.90;369.50;373.50;375.50
84107;NextPM;74203;50.730;1.626;2023-11-19T03:14:13;40.20;29.75;26.80;370.00;373.00;374.50
84107;NextPM;74203;50.730;1.626;2023-11-19T03:16:20;37.60;27.85;25.05;344.50;347.00;348.50
84107;NextPM;74203;50.730;1.626;2023-11-19T03:18:28;36.45;26.95;24.25;334.50;337.50;338.50
84107;NextPM;74203;50.730;1.626;2023-11-19T03:20:35;37.65;27.85;25.05;347.00;350.00;351.00
84107;NextPM;74203;50.730;1.626;2023-11-19T03:22:42;37.70;27.85;25.10;336.00;339.00;340.50
84107;NextPM;74203;50.730;1.626;2023-11-19T03:24:52;36.95;27.30;24.60;335.50;338.00;339.50
84107;NextPM;74203;50.730;1.626;2023-11-19T03:27:00;36.15;26.75;24.10;333.50;336.00;337.50
84107;NextPM;74203;50.730;1.626;2023-11-19T03:29:07;37.10;27.45;24.70;344.50;347.50;348.50
84107;NextPM;74203;50.730;1.626;2023-11-19T03:31:15;37.85;28.00;25.20;350.00;352.50;354.50
84107;NextPM;74203;50.730;1.626;2023-11-19T03:33:22;38.15;28.25;25.40;344.00;347.00;349.00
84107;NextPM;74203;50.730;1.626;2023-11-19T03:35:30;38.65;28.55;25.75;346.00;349.00;350.00
84107;NextPM;74203;50.730;1.626;2023-11-19T03:37:37;39.00;28.85;26.00;353.00;356.00;357.00
84107;NextPM;74203;50.730;1.626;2023-11-19T03:39:45;37.80;27.95;25.15;343.00;345.00;346.50
84107;NextPM;74203;50.730;1.626;2023-11-19T03:41:52;36.15;26.75;24.05;331.00;334.00;335.00
84107;NextPM;74203;50.730;1.626;2023-11-19T03:44:00;35.15;26.00;23.45;318.00;320.00;321.50
84107;NextPM;74203;50.730;1.626;2023-11-19T03:46:17;34.45;25.50;22.90;309.50;312.00;313.50
84107;NextPM;74203;50.730;1.626;2023-11-19T03:48:25;34.15;25.25;22.75;311.50;314.00;315.50
84107;NextPM;74203;50.730;1.626;2023-11-19T03:50:33;35.25;26.05;23.45;319.50;322.00;323.50
84107;NextPM;74203;50.730;1.626;2023-11-19T03:52:40;36.10;26.70;24.05;326.50;329.50;330.50
84107;NextPM;74203;50.730;1.626;2023-11-19T03:54:48;36.95;27.30;24.65;333.00;335.50;337.50
84107;NextPM;74203;50.730;1.626;2023-11-19T03:56:55;34.55;25.55;23.05;317.50;320.00;321.00
84107;NextPM;74203;50.730;1.626;2023-11-19T03:59:02;35.10;25.95;23.40;324.00;326.50;327.00
84107;NextPM;74203;50.730;1.626;2023-11-19T04:01:12;35.55;26.30;23.70;323.50;326.00;327.50
84107;NextPM;74203;50.730;1.626;2023-11-19T04:03:20;36.15;26.75;24.10;327.00;330.50;332.00
84107;NextPM;74203;50.730;1.626;2023-11-19T04:05:27;37.10;27.40;24.70;334.00;337.00;338.00
84107;NextPM;74203;50.730;1.626;2023-11-19T04:07:34;37.70;27.90;25.15;338.00;341.00;342.00
84107;NextPM;74203;50.730;1.626;2023-11-19T04:09:41;36.90;27.30;24.60;337.00;340.00;341.50
84107;NextPM;74203;50.730;1.626;2023-11-19T04:11:49;36.50;27.00;24.30;335.50;338.50;339.50
84107;NextPM;74203;50.730;1.626;2023-11-19T04:13:56;37.55;27.80;25.00;336.00;339.00;340.00
84107;NextPM;74203;50.730;1.626;2023-11-19T04:16:04;34.25;25.35;22.80;310.50;313.00;314.50
84107;NextPM;74203;50.730;1.626;2023-11-19T04:18:12;34.35;25.40;22.90;319.50;321.00;322.00
84107;NextPM;74203;50.730;1.626;2023-11-19T04:20:20;34.70;25.70;23.10;322.50;325.50;327.00
84107;NextPM;74203;50.730;1.626;2023-11-19T04:22:27;35.80;26.50;23.90;324.00;326.50;328.00
84107;NextPM;74203;50.730;1.626;2023-11-19T04:24:34;34.55;25.55;23.05;317.00;319.00;320.50
84107;NextPM;74203;50.730;1.626;2023-11-19T04:26:43;35.50;26.25;23.65;327.50;329.50;331.00
84107;NextPM;74203;50.730;1.626;2023-11-19T04:28:50;37.55;27.75;25.05;340.50;344.00;345.00
84107;NextPM;74203;50.730;1.626;2023-11-19T04:30:58;35.85;26.50;23.90;324.00;326.50;328.00
84107;NextPM;74203;50.730;1.626;2023-11-19T04:33:05;36.85;27.25;24.55;336.50;339.00;340.50
84107;NextPM;74203;50.730;1.626;2023-11-19T04:35:13;36.85;27.30;24.55;331.00;333.50;334.50
84107;NextPM;74203;50.730;1.626;2023-11-19T04:37:20;37.30;27.60;24.90;335.50;339.00;340.00
84107;NextPM;74203;50.730;1.626;2023-11-19T04:39:28;35.60;26.30;23.70;326.50;329.00;331.00
84107;NextPM;74203;50.730;1.626;2023-11-19T04:41:36;36.30;26.80;24.20;325.00;327.50;329.00
84107;NextPM;74203;50.730;1.626;2023-11-19T04:43:49;36.60;27.05;24.40;324.00;327.00;328.50
84107;NextPM;74203;50.730;1.626;2023-11-19T04:45:57;36.00;26.60;24.00;323.50;326.50;327.50
84107;NextPM;74203;50.730;1.626;2023-11-19T04:48:07;36.85;27.25;24.55;335.50;337.50;339.00
84107;NextPM;74203;50.730;1.626;2023-11-19T04:50:15;37.85;28.00;25.25;338.50;341.50;343.00
84107;NextPM;74203;50.730;1.626;2023-11-19T04:52:22;38.50;28.45;25.65;340.50;344.50;345.50
84107;NextPM;74203;50.730;1.626;2023-11-19T04:54:30;39.15;28.95;26.10;361.50;365.00;366.50
84107;NextPM;74203;50.730;1.626;2023-11-19T04:56:37;38.55;28.50;25.70;352.00;355.00;357.00
84107;NextPM;74203;50.730;1.626;2023-11-19T04:58:45;37.90;28.00;25.25;345.00;348.50;350.50
84107;NextPM;74203;50.730;1.626;2023-11-19T05:00:52;38.45;28.45;25.65;348.50;351.50;353.00
84107;NextPM;74203;50.730;1.626;2023-11-19T05:03:00;39.40;29.15;26.25;358.50;361.50;363.00
84107;NextPM;74203;50.730;1.626;2023-11-19T05:05:07;37.05;27.45;24.70;342.00;344.50;346.00
84107;NextPM;74203;50.730;1.626;2023-11-19T05:07:15;35.75;26.45;23.85;330.50;333.00;334.50
84107;NextPM;74203;50.730;1.626;2023-11-19T05:09:23;35.90;26.55;23.90;326.50;328.50;329.50
84107;NextPM;74203;50.730;1.626;2023-11-19T05:11:30;37.25;27.50;24.80;336.50;339.00;341.00
84107;NextPM;74203;50.730;1.626;2023-11-19T05:13:37;38.75;28.65;25.80;350.50;353.00;354.50
84107;NextPM;74203;50.730;1.626;2023-11-19T05:15:45;36.45;26.90;24.25;329.50;332.00;333.50
84107;NextPM;74203;50.730;1.626;2023-11-19T05:17:53;37.20;27.55;24.80;336.50;339.00;340.50
84107;NextPM;74203;50.730;1.626;2023-11-19T05:20:00;38.25;28.30;25.50;349.50;352.50;353.50
84107;NextPM;74203;50.730;1.626;2023-11-19T05:22:08;37.80;28.00;25.15;343.50;346.50;348.50
84107;NextPM;74203;50.730;1.626;2023-11-19T05:24:16;35.90;26.55;23.90;326.00;328.50;330.00
84107;NextPM;74203;50.730;1.626;2023-11-19T05:26:23;38.15;28.25;25.40;342.00;345.00;346.50
84107;NextPM;74203;50.730;1.626;2023-11-19T05:28:31;39.45;29.20;26.25;353.50;357.00;358.50
84107;NextPM;74203;50.730;1.626;2023-11-19T05:30:38;38.55;28.55;25.70;350.00;353.00;353.50
84107;NextPM;74203;50.730;1.626;2023-11-19T05:32:45;38.90;28.75;25.90;354.00;356.50;357.50
84107;NextPM;74203;50.730;1.626;2023-11-19T05:34:53;35.55;26.30;23.70;329.50;332.50;334.00
84107;NextPM;74203;50.730;1.626;2023-11-19T05:37:00;36.90;27.30;24.60;335.00;338.00;339.00
84107;NextPM;74203;50.730;1.626;2023-11-19T05:39:08;35.90;26.55;23.90;331.50;334.50;336.00
84107;NextPM;74203;50.730;1.626;2023-11-19T05:41:16;37.80;27.95;25.15;339.50;342.00;343.50
84107;NextPM;74203;50.730;1.626;2023-11-19T05:43:23;38.70;28.60;25.80;345.00;347.50;349.00
84107;NextPM;74203;50.730;1.626;2023-11-19T05:45:31;36.90;27.30;24.60;335.00;338.00;340.00
84107;NextPM;74203;50.730;1.626;2023-11-19T05:47:40;38.05;28.15;25.35;347.00;350.00;351.50
84107;NextPM;74203;50.730;1.626;2023-11-19T05:49:48;37.70;27.90;25.15;341.50;344.00;346.00
84107;NextPM;74203;50.730;1.626;2023-11-19T05:51:55;37.80;27.95;25.20;346.00;348.50;350.50
84107;NextPM;74203;50.730;1.626;2023-11-19T05:54:02;36.60;27.05;24.35;331.00;335.00;336.00
84107;NextPM;74203;50.730;1.626;2023-11-19T05:56:10;35.65;26.40;23.75;327.50;330.50;332.00
84107;NextPM;74203;50.730;1.626;2023-11-19T05:58:18;36.50;27.00;24.35;330.00;332.50;333.50
84107;NextPM;74203;50.730;1.626;2023-11-19T06:00:27;34.15;25.30;22.75;315.00;317.50;319.00
84107;NextPM;74203;50.730;1.626;2023-11-19T06:02:34;37.10;27.45;24.70;336.00;339.50;341.00
84107;NextPM;74203;50.730;1.626;2023-11-19T06:04:41;34.50;25.55;23.00;316.50;319.50;321.00
84107;NextPM;74203;50.730;1.626;2023-11-19T06:06:49;34.85;25.80;23.25;324.00;326.50;327.50
84107;NextPM;74203;50.730;1.626;2023-11-19T06:08:56;32.80;24.25;21.85;302.00;304.50;305.50
84107;NextPM;74203;50.730;1.626;2023-11-19T06:11:04;34.10;25.20;22.70;306.50;309.00;310.50
84107;NextPM;74203;50.730;1.626;2023-11-19T06:13:14;33.30;24.65;22.20;305.00;307.00;308.50
84107;NextPM;74203;50.730;1.626;2023-11-19T06:15:21;36.75;27.20;24.50;339.50;342.50;343.50
84107;NextPM;74203;50.730;1.626;2023-11-19T06:17:29;37.95;28.10;25.30;345.50;347.50;348.50
84107;NextPM;74203;50.730;1.626;2023-11-19T06:19:36;40.25;29.80;26.80;370.00;373.00;374.50
84107;NextPM;74203;50.730;1.626;2023-11-19T06:21:43;39.60;29.30;26.35;361.50;364.50;366.50
84107;NextPM;74203;50.730;1.626;2023-11-19T06:23:51;40.10;29.65;26.70;364.50;367.50;369.00
84107;NextPM;74203;50.730;1.626;2023-11-19T06:25:58;38.35;28.40;25.55;343.50;346.50;348.00
84107;NextPM;74203;50.730;1.626;2023-11-19T06:28:05;38.50;28.45;25.65;341.50;344.00;345.00
84107;NextPM;74203;50.730;1.626;2023-11-19T06:30:13;36.40;26.90;24.25;328.50;332.00;333.50
84107;NextPM;74203;50.730;1.626;2023-11-19T06:32:21;37.90;28.05;25.25;347.00;349.50;350.50
84107;NextPM;74203;50.730;1.626;2023-11-19T06:34:28;38.55;28.55;25.70;353.00;356.00;357.50
84107;NextPM;74203;50.730;1.626;2023-11-19T06:36:36;37.20;27.55;24.80;341.50;344.00;346.00
84107;NextPM;74203;50.730;1.626;2023-11-19T06:38:43;37.40;27.70;24.90;342.00;344.50;346.00
84107;NextPM;74203;50.730;1.626;2023-11-19T06:40:50;36.60;27.10;24.35;330.50;333.00;334.00
84107;NextPM;74203;50.730;1.626;2023-11-19T06:42:58;36.20;26.80;24.15;330.00;332.00;334.00
84107;NextPM;74203;50.730;1.626;2023-11-19T06:45:06;34.15;25.25;22.75;312.00;315.00;316.00
84107;NextPM;74203;50.730;1.626;2023-11-19T06:47:14;33.15;24.50;22.05;303.00;305.50;307.00
84107;NextPM;74203;50.730;1.626;2023-11-19T06:49:21;32.35;23.95;21.55;297.00;299.50;300.50
84107;NextPM;74203;50.730;1.626;2023-11-19T06:51:29;35.65;26.35;23.75;319.00;321.50;322.50
84107;NextPM;74203;50.730;1.626;2023-11-19T06:53:36;34.55;25.55;23.00;314.50;316.50;317.50
84107;NextPM;74203;50.730;1.626;2023-11-19T06:55:43;34.60;25.55;23.05;311.50;314.50;315.50
84107;NextPM;74203;50.730;1.626;2023-11-19T06:57:51;35.75;26.45;23.85;323.00;326.00;327.50
84107;NextPM;74203;50.730;1.626;2023-11-19T06:59:58;36.70;27.10;24.40;329.50;332.50;333.50
84107;NextPM;74203;50.730;1.626;2023-11-19T07:02:06;35.55;26.35;23.70;323.50;326.00;327.00
84107;NextPM;74203;50.730;1.626;2023-11-19T07:04:14;35.75;26.45;23.80;322.50;324.50;326.50
84107;NextPM;74203;50.730;1.626;2023-11-19T07:06:21;34.05;25.20;22.65;315.00;317.50;318.50
84107;NextPM;74203;50.730;1.626;2023-11-19T07:08:28;31.75;23.50;21.15;288.50;291.00;292.50
84107;NextPM;74203;50.730;1.626;2023-11-19T07:10:36;34.00;25.15;22.65;309.00;311.50;312.50
84107;NextPM;74203;50.730;1.626;2023-11-19T07:12:43;34.65;25.65;23.05;317.50;321.00;322.00
84107;NextPM;74203;50.730;1.626;2023-11-19T07:14:50;33.90;25.05;22.55;309.50;312.50;313.50
84107;NextPM;74203;50.730;1.626;2023-11-19T07:16:58;35.05;25.90;23.35;322.50;325.00;326.00
84107;NextPM;74203;50.730;1.626;2023-11-19T07:19:05;34.40;25.45;22.90;316.00;319.00;320.00
84107;NextPM;74203;50.730;1.626;2023-11-19T07:21:13;32.05;23.75;21.35;300.50;303.50;304.50
84107;NextPM;74203;50.730;1.626;2023-11-19T07:23:20;32.65;24.10;21.75;290.50;292.50;293.50
84107;NextPM;74203;50.730;1.626;2023-11-19T07:25:27;31.50;23.25;21.00;291.50;294.50;295.50
84107;NextPM;74203;50.730;1.626;2023-11-19T07:27:35;33.35;24.70;22.20;310.50;313.00;314.00
84107;NextPM;74203;50.730;1.626;2023-11-19T07:29:42;30.95;22.90;20.60;285.50;288.00;289.00
84107;NextPM;74203;50.730;1.626;2023-11-19T07:31:50;32.55;24.00;21.65;297.00;299.50;301.00
84107;NextPM;74203;50.730;1.626;2023-11-19T07:33:59;30.05;22.20;20.05;275.50;278.00;279.00
84107;NextPM;74203;50.730;1.626;2023-11-19T07:36:09;31.10;23.00;20.70;286.50;288.50;289.50
84107;NextPM;74203;50.730;1.626;2023-11-19T07:38:17;31.00;22.95;20.65;281.50;284.00;285.50
84107;NextPM;74203;50.730;1.626;2023-11-19T07:40:24;31.95;23.65;21.30;298.50;301.00;302.00
84107;NextPM;74203;50.730;1.626;2023-11-19T07:42:32;30.90;22.85;20.55;280.00;282.00;283.50
84107;NextPM;74203;50.730;1.626;2023-11-19T07:44:39;30.75;22.70;20.50;278.50;280.50;281.50
84107;NextPM;74203;50.730;1.626;2023-11-19T07:46:47;32.45;24.00;21.65;299.00;301.00;302.50
84107;NextPM;74203;50.730;1.626;2023-11-19T07:48:55;32.25;23.85;21.45;298.00;300.00;301.00
84107;NextPM;74203;50.730;1.626;2023-11-19T07:51:03;31.55;23.35;21.05;291.00;294.00;295.00
84107;NextPM;74203;50.730;1.626;2023-11-19T07:53:11;32.55;24.10;21.70;298.50;301.00;302.00
84107;NextPM;74203;50.730;1.626;2023-11-19T07:55:19;33.20;24.55;22.10;301.50;304.00;305.00
84107;NextPM;74203;50.730;1.626;2023-11-19T07:57:27;35.25;26.05;23.50;322.50;325.50;326.50
84107;NextPM;74203;50.730;1.626;2023-11-19T07:59:34;34.60;25.65;23.05;314.50;317.00;318.00
84107;NextPM;74203;50.730;1.626;2023-11-19T08:01:41;32.95;24.40;21.95;305.50;307.50;309.50
84107;NextPM;74203;50.730;1.626;2023-11-19T08:03:48;33.80;25.00;22.50;302.00;304.50;305.50
84107;NextPM;74203;50.730;1.626;2023-11-19T08:05:57;34.50;25.50;22.95;315.00;318.00;318.50
84107;NextPM;74203;50.730;1.626;2023-11-19T08:08:04;32.50;24.05;21.65;301.00;303.50;305.50
84107;NextPM;74203;50.730;1.626;2023-11-19T08:10:11;33.45;24.75;22.30;309.50;312.00;313.50
84107;NextPM;74203;50.730;1.626;2023-11-19T08:12:19;34.20;25.30;22.75;315.00;317.50;319.00
84107;NextPM;74203;50.730;1.626;2023-11-19T08:14:26;35.55;26.25;23.70;329.00;332.00;333.00
84107;NextPM;74203;50.730;1.626;2023-11-19T08:16:34;35.30;26.15;23.55;323.50;326.50;327.50
84107;NextPM;74203;50.730;1.626;2023-11-19T08:18:43;35.80;26.50;23.85;324.50;327.50;329.00
84107;NextPM;74203;50.730;1.626;2023-11-19T08:20:50;33.95;25.10;22.60;317.50;320.00;321.50
84107;NextPM;74203;50.730;1.626;2023-11-19T08:22:58;33.65;24.90;22.40;306.50;308.50;310.50
84107;NextPM;74203;50.730;1.626;2023-11-19T08:25:08;34.15;25.25;22.70;310.50;313.00;314.00
84107;NextPM;74203;50.730;1.626;2023-11-19T08:27:16;35.10;26.00;23.35;318.50;321.50;322.50
84107;NextPM;74203;50.730;1.626;2023-11-19T08:29:23;35.80;26.45;23.85;333.50;336.50;338.00
84107;NextPM;74203;50.730;1.626;2023-11-19T08:31:30;36.70;27.10;24.45;335.50;338.00;339.50
84107;NextPM;74203;50.730;1.626;2023-11-19T08:33:38;36.80;27.20;24.50;338.00;340.50;341.50
84107;NextPM;74203;50.730;1.626;2023-11-19T08:35:45;37.45;27.70;24.95;342.50;346.00;347.00
84107;NextPM;74203;50.730;1.626;2023-11-19T08:37:53;37.35;27.65;24.90;337.00;340.00;341.00
84107;NextPM;74203;50.730;1.626;2023-11-19T08:40:00;35.65;26.35;23.75;329.50;332.00;333.00
84107;NextPM;74203;50.730;1.626;2023-11-19T08:42:08;34.60;25.60;23.05;322.50;325.00;326.50
84107;NextPM;74203;50.730;1.626;2023-11-19T08:44:16;37.25;27.55;24.80;341.50;344.00;345.50
84107;NextPM;74203;50.730;1.626;2023-11-19T08:46:23;35.25;26.10;23.50;321.50;324.00;325.50
84107;NextPM;74203;50.730;1.626;2023-11-19T08:48:31;35.75;26.40;23.80;328.50;331.50;332.50
84107;NextPM;74203;50.730;1.626;2023-11-19T08:50:38;35.75;26.45;23.80;333.00;336.50;337.50
84107;NextPM;74203;50.730;1.626;2023-11-19T08:52:46;37.25;27.50;24.80;342.50;345.00;347.00
84107;NextPM;74203;50.730;1.626;2023-11-19T08:54:53;36.40;26.95;24.25;335.50;338.00;340.00
84107;NextPM;74203;50.730;1.626;2023-11-19T08:57:00;36.40;26.90;24.25;336.00;338.00;339.50
84107;NextPM;74203;50.730;1.626;2023-11-19T08:59:08;35.05;25.95;23.35;318.50;321.00;322.00
84107;NextPM;74203;50.730;1.626;2023-11-19T09:01:16;33.25;24.65;22.20;308.50;311.00;312.50
84107;NextPM;74203;50.730;1.626;2023-11-19T09:03:23;34.10;25.20;22.70;317.00;320.00;321.00
84107;NextPM;74203;50.730;1.626;2023-11-19T09:05:30;37.45;27.70;24.95;337.50;340.50;342.00
84107;NextPM;74203;50.730;1.626;2023-11-19T09:07:38;37.85;28.00;25.25;350.00;353.50;354.50
84107;NextPM;74203;50.730;1.626;2023-11-19T09:09:46;38.40;28.35;25.55;348.50;351.50;352.50
84107;NextPM;74203;50.730;1.626;2023-11-19T09:11:53;37.25;27.55;24.85;333.50;336.00;338.00
84107;NextPM;74203;50.730;1.626;2023-11-19T09:14:00;36.95;27.35;24.60;343.50;346.50;347.50
84107;NextPM;74203;50.730;1.626;2023-11-19T09:16:08;35.80;26.45;23.80;328.00;329.50;331.50